Time;durP1;ratioP1;P1;durP2;ratioP2;P2;SDS_P1;SDS_P2;PMS_P1;PMS_P2;Temp;Humidity;BMP_temperature;BMP_pressure;BME280_temperature;BME280_humidity;BME280_pressure;Samples;Min_cycle;Max_cycle;Signal;HPM_P1;HPM_P2
2023/10/13 00:01:07;;;;;;;;;;;;;;;22.14;55.88;101061.09;5045742;28;19913;-50
2023/10/13 00:03:33;;;;;;;;;;;;;;;22.14;56.20;101063.81;5042269;28;19920;-50
2023/10/13 00:06:02;;;;;;;;;;;;;;;22.12;55.97;101061.28;5041697;28;19909;-49
2023/10/13 00:08:28;;;;;;;;;;;;;;;22.12;56.14;101055.84;5039935;28;19935;-49
2023/10/13 00:10:59;;;;;;;;;;;;;;;22.12;55.96;101055.00;5042085;28;19972;-49
2023/10/13 00:13:26;;;;;;;;;;;;;;;22.12;56.11;101053.16;5042033;28;19932;-49
2023/10/13 00:15:58;;;;;;;;;;;;;;;22.11;55.97;101053.31;5043706;28;19910;-47
2023/10/13 00:18:27;;;;;;;;;;;;;;;22.11;55.83;101051.44;5041464;28;19917;-48
2023/10/13 00:20:56;;;;;;;;;;;;;;;22.11;56.14;101056.84;5042738;28;19928;-48
2023/10/13 00:23:21;;;;;;;;;;;;;;;22.11;56.00;101048.72;5039389;28;19918;-47
2023/10/13 00:25:50;;;;;;;;;;;;;;;22.11;55.95;101046.03;5041224;28;19920;-48
2023/10/13 00:28:23;;;;;;;;;;;;;;;22.11;55.93;101043.31;5042711;28;19909;-49
2023/10/13 00:30:52;;;;;;;;;;;;;;;22.10;55.78;101040.81;5040166;28;20620;-47
2023/10/13 00:33:20;;;;;;;;;;;;;;;22.09;55.79;101037.25;5041183;28;19908;-48
2023/10/13 00:35:47;;;;;;;;;;;;;;;22.09;55.98;101034.56;5037426;28;20265;-46
2023/10/13 00:38:17;;;;;;;;;;;;;;;22.08;55.71;101043.69;5038965;28;20011;-48
2023/10/13 00:40:44;;;;;;;;;;;;;;;22.08;55.74;101034.72;5042923;28;19952;-49
2023/10/13 00:45:44;;;;;;;;;;;;;;;22.07;55.96;101031.19;5049179;28;20386;-48
2023/10/13 00:48:14;;;;;;;;;;;;;;;22.07;55.96;101041.19;5040574;28;19909;-52
2023/10/13 00:50:40;;;;;;;;;;;;;;;22.06;55.77;101042.22;5042272;28;19909;-49
2023/10/13 00:53:07;;;;;;;;;;;;;;;22.06;56.07;101028.66;5042598;28;20303;-48
2023/10/13 00:55:33;;;;;;;;;;;;;;;22.05;55.84;101027.84;5040666;28;19909;-49
2023/10/13 00:58:02;;;;;;;;;;;;;;;22.04;55.79;101020.72;5042197;28;19913;-47
2023/10/13 01:00:28;;;;;;;;;;;;;;;22.04;56.15;101020.72;5038852;28;19912;-47
2023/10/13 01:02:56;;;;;;;;;;;;;;;22.05;56.07;101021.59;5036768;28;19914;-51
2023/10/13 01:05:23;;;;;;;;;;;;;;;22.04;56.14;101011.75;5034065;28;19913;-51
2023/10/13 01:07:52;;;;;;;;;;;;;;;22.04;55.79;101011.75;5039080;28;19956;-47
2023/10/13 01:10:19;;;;;;;;;;;;;;;22.03;55.84;101013.63;5047638;28;19901;-49
2023/10/13 01:12:45;;;;;;;;;;;;;;;22.03;56.03;101015.50;5043756;28;19913;-50
2023/10/13 01:15:11;;;;;;;;;;;;;;;22.03;56.09;101004.66;5038329;28;19909;-47
2023/10/13 01:17:36;;;;;;;;;;;;;;;22.02;55.98;101003.00;5037167;28;19917;-49
2023/10/13 01:20:03;;;;;;;;;;;;;;;22.01;55.87;100996.75;5042743;28;19917;-48
2023/10/13 01:22:31;;;;;;;;;;;;;;;22.01;55.91;100996.75;5039823;28;19913;-49
2023/10/13 01:25:05;;;;;;;;;;;;;;;22.01;55.91;100999.44;5039423;28;19909;-49
2023/10/13 01:27:31;;;;;;;;;;;;;;;22.00;55.97;100997.75;5046064;28;19910;-49
2023/10/13 01:30:05;;;;;;;;;;;;;;;22.00;55.84;101000.44;5032960;28;19936;-51
2023/10/13 01:32:30;;;;;;;;;;;;;;;21.99;55.86;100982.53;5040011;28;19945;-47
2023/10/13 01:34:57;;;;;;;;;;;;;;;21.99;56.26;100984.41;5038056;28;20293;-49
2023/10/13 01:37:23;;;;;;;;;;;;;;;;;;5029000;28;19920;-52
2023/10/13 01:39:49;;;;;;;;;;;;;;;21.95;55.93;100975.81;5037645;28;19925;-47
2023/10/13 01:42:19;;;;;;;;;;;;;;;21.94;56.16;100974.16;5040885;28;19972;-48
2023/10/13 01:44:44;;;;;;;;;;;;;;;21.93;56.11;100970.59;5048819;28;20282;-48
2023/10/13 01:47:09;;;;;;;;;;;;;;;21.93;56.14;100964.34;5038465;28;20400;-48
2023/10/13 01:49:47;;;;;;;;;;;;;;;21.92;56.13;100959.97;5041665;28;19920;-48
2023/10/13 01:52:15;;;;;;;;;;;;;;;21.91;56.25;100950.16;5043212;28;19913;-46
2023/10/13 01:54:40;;;;;;;;;;;;;;;21.90;56.33;100943.91;5036224;28;19915;-49
2023/10/13 01:57:13;;;;;;;;;;;;;;;21.88;56.00;100951.38;5040285;28;19962;-48
2023/10/13 01:59:43;;;;;;;;;;;;;;;21.87;56.18;100943.41;5042482;28;19985;-46
2023/10/13 02:02:11;;;;;;;;;;;;;;;21.85;56.15;100940.91;5038260;28;19913;-47
2023/10/13 02:04:42;;;;;;;;;;;;;;;21.84;56.22;100928.41;5041660;28;20411;-48
2023/10/13 02:07:08;;;;;;;;;;;;;;;21.83;56.11;100924.00;5040394;28;19913;-50
2023/10/13 02:09:36;;;;;;;;;;;;;;;21.83;56.43;100928.59;5040084;28;19915;-49
2023/10/13 02:12:02;;;;;;;;;;;;;;;21.82;56.11;100927.75;5039363;28;19924;-50
2023/10/13 02:14:27;;;;;;;;;;;;;;;21.80;56.28;100910.88;5037252;28;19913;-48
2023/10/13 02:17:11;;;;;;;;;;;;;;;21.80;56.24;100918.16;5038764;28;19913;-48
2023/10/13 02:19:39;;;;;;;;;;;;;;;21.79;56.36;100911.91;5039916;28;20033;-47
2023/10/13 02:22:06;;;;;;;;;;;;;;;21.78;56.54;100909.38;5036861;28;19917;-51
2023/10/13 02:24:32;;;;;;;;;;;;;;;21.77;56.27;100908.53;5040964;28;19956;-48
2023/10/13 02:27:04;;;;;;;;;;;;;;;21.76;56.58;100906.03;5039432;28;19919;-50
2023/10/13 02:29:30;;;;;;;;;;;;;;;21.74;56.67;100905.34;5039795;28;19917;-48
2023/10/13 02:31:55;;;;;;;;;;;;;;;21.73;56.69;100896.41;5041500;28;19913;-50
2023/10/13 02:34:22;;;;;;;;;;;;;;;21.72;56.58;100889.31;5037268;28;19916;-49
2023/10/13 02:36:51;;;;;;;;;;;;;;;21.70;56.57;100891.34;5038854;28;19909;-51
2023/10/13 02:39:16;;;;;;;;;;;;;;;21.69;56.81;100885.09;5041274;28;20036;-50
2023/10/13 02:41:47;;;;;;;;;;;;;;;21.68;56.70;100890.72;5035796;28;19913;-50
2023/10/13 02:44:27;;;;;;;;;;;;;;;21.66;56.44;100880.09;5041130;28;19915;-51
2023/10/13 02:46:55;;;;;;;;;;;;;;;21.65;56.61;100880.25;5041498;28;19913;-49
2023/10/13 02:49:26;;;;;;;;;;;;;;;21.63;56.92;100880.47;5039986;28;19949;-51
2023/10/13 02:51:52;;;;;;;;;;;;;;;21.63;56.89;100876.91;5039594;28;19917;-47
2023/10/13 02:54:18;;;;;;;;;;;;;;;21.62;56.56;100870.66;5034528;28;19909;-48
2023/10/13 02:56:56;;;;;;;;;;;;;;;21.62;56.83;100869.81;5040374;28;19924;-49
2023/10/13 02:59:34;;;;;;;;;;;;;;;21.61;56.72;100865.44;5037683;28;19914;-51
2023/10/13 03:01:59;;;;;;;;;;;;;;;21.60;56.87;100869.16;5039574;28;19947;-49
2023/10/13 03:04:25;;;;;;;;;;;;;;;21.59;56.64;100868.34;5038097;28;19913;-51
2023/10/13 03:06:51;;;;;;;;;;;;;;;21.58;56.95;100863.09;5034861;28;19935;-47
2023/10/13 03:09:21;;;;;;;;;;;;;;;21.58;56.65;100858.53;5036642;28;20403;-48
2023/10/13 03:11:49;;;;;;;;;;;;;;;21.57;56.86;100859.53;5039992;28;19917;-49
2023/10/13 03:14:26;;;;;;;;;;;;;;;21.57;56.87;100856.00;5032234;28;19912;-50
2023/10/13 03:16:55;;;;;;;;;;;;;;;21.56;57.10;100843.50;5036507;28;19913;-48
2023/10/13 03:19:21;;;;;;;;;;;;;;;21.55;56.92;100841.84;5037031;28;20047;-51
2023/10/13 03:21:54;;;;;;;;;;;;;;;21.55;56.99;100833.72;5037312;28;19919;-48
2023/10/13 03:24:22;;;;;;;;;;;;;;;21.54;57.05;100830.19;5040402;28;19916;-49
2023/10/13 03:26:52;;;;;;;;;;;;;;;21.54;56.82;100821.22;5034210;28;19909;-48
2023/10/13 03:29:21;;;;;;;;;;;;;;;21.54;56.87;100818.53;5030632;28;19940;-48
2023/10/13 03:31:46;;;;;;;;;;;;;;;21.52;56.84;100813.28;5037386;28;20061;-51
2023/10/13 03:34:12;;;;;;;;;;;;;;;21.51;56.90;100814.31;5032402;28;19910;-47
2023/10/13 03:39:27;;;;;;;;;;;;;;;21.51;56.95;100797.25;5040634;28;20430;-48
2023/10/13 03:41:53;;;;;;;;;;;;;;;21.50;56.95;100790.19;5035816;28;19909;-47
2023/10/13 03:44:18;;;;;;;;;;;;;;;21.49;57.15;100778.50;5041048;28;19955;-45
2023/10/13 03:46:47;;;;;;;;;;;;;;;21.49;57.24;100772.25;5042622;28;20364;-47
2023/10/13 03:49:12;;;;;;;;;;;;;;;21.48;56.91;100759.75;5033096;28;19920;-47
2023/10/13 03:51:41;;;;;;;;;;;;;;;21.47;56.94;100767.03;5040028;28;19908;-48
2023/10/13 03:54:09;;;;;;;;;;;;;;;21.46;57.23;100752.66;5038772;28;20385;-48
2023/10/13 03:56:40;;;;;;;;;;;;;;;21.46;57.00;100760.78;5043290;28;19988;-48
2023/10/13 03:59:06;;;;;;;;;;;;;;;21.45;57.24;100755.53;5041522;28;19920;-48
2023/10/13 04:01:45;;;;;;;;;;;;;;;21.44;56.92;100762.81;5043808;28;19959;-49
2023/10/13 04:04:11;;;;;;;;;;;;;;;21.44;56.92;100754.72;5040910;28;19916;-46
2023/10/13 04:17:27;;;;;;;;;;;;;;;21.41;57.36;100708.31;5039127;28;20342;-49
2023/10/13 04:28:15;;;;;;;;;;;;;;;21.37;57.07;100678.09;5044179;28;19915;-47
2023/10/13 04:36:13;;;;;;;;;;;;;;;21.35;57.08;100663.91;5050889;28;19909;-47
2023/10/13 04:38:55;;;;;;;;;;;;;;;21.35;57.17;100657.66;5038470;28;19932;-47
2023/10/13 04:41:23;;;;;;;;;;;;;;;21.34;57.32;100654.13;5043519;28;19909;-48
2023/10/13 04:43:55;;;;;;;;;;;;;;;21.32;57.47;100639.09;5040872;28;19957;-47
2023/10/13 04:46:39;;;;;;;;;;;;;;;21.31;57.43;100640.94;5038834;28;19936;-48
2023/10/13 04:49:10;;;;;;;;;;;;;;;21.30;57.58;100633.03;5039792;28;19917;-49
2023/10/13 05:05:21;;;;;;;;;;;;;;;21.23;57.54;100606.72;5014797;28;20336;-48
2023/10/13 06:29:38;;;;;;;;;;;;;;;21.14;59.35;100548.41;5037917;28;19919;-47
2023/10/13 06:32:10;;;;;;;;;;;;;;;21.14;59.51;100532.19;5040598;28;19979;-52
2023/10/13 06:34:44;;;;;;;;;;;;;;;21.14;59.45;100537.59;5038725;28;19909;-47
2023/10/13 06:37:22;;;;;;;;;;;;;;;21.14;59.60;100540.31;5037843;28;19952;-47
2023/10/13 06:39:48;;;;;;;;;;;;;;;21.14;59.36;100534.06;5039940;28;19963;-48
2023/10/13 06:42:14;;;;;;;;;;;;;;;21.14;59.49;100525.94;5039717;28;19966;-48
2023/10/13 06:44:45;;;;;;;;;;;;;;;21.16;59.75;100518.50;5039723;28;19936;-47
2023/10/13 06:47:10;;;;;;;;;;;;;;;21.15;59.61;100522.22;5039421;28;19913;-48
2023/10/13 06:49:39;;;;;;;;;;;;;;;21.14;59.80;100523.25;5035841;28;19944;-48
2023/10/13 06:52:06;;;;;;;;;;;;;;;21.15;59.72;100527.63;5039633;28;19990;-49
2023/10/13 06:54:33;;;;;;;;;;;;;;;21.14;59.59;100528.66;5036777;28;19909;-50
2023/10/13 06:56:58;;;;;;;;;;;;;;;21.13;59.68;100514.31;5035644;28;20015;-51
2023/10/13 06:59:26;;;;;;;;;;;;;;;21.13;59.72;100519.72;5037768;28;19952;-51
2023/10/13 07:01:52;;;;;;;;;;;;;;;21.13;59.45;100516.19;5038899;28;19986;-50
2023/10/13 07:04:17;;;;;;;;;;;;;;;21.12;59.85;100518.03;5034918;28;19918;-49
2023/10/13 07:06:47;;;;;;;;;;;;;;;21.12;59.89;100515.34;5036591;28;19916;-50
2023/10/13 07:09:39;;;;;;;;;;;;;;;21.12;59.79;100520.75;5033829;28;19913;-49
2023/10/13 07:12:00;;;;;;;;;;;;;;;21.12;59.72;100518.03;5033680;28;19917;-50
2023/10/13 07:14:26;;;;;;;;;;;;;;;21.10;59.69;100509.28;5038253;28;19984;-47
2023/10/13 07:17:00;;;;;;;;;;;;;;;21.12;59.75;100509.09;5037676;28;19913;-51
2023/10/13 07:19:29;;;;;;;;;;;;;;;21.11;59.98;100510.09;5039186;28;19924;-51
2023/10/13 07:22:03;;;;;;;;;;;;;;;21.12;59.68;100495.59;5036987;28;19972;-50
2023/10/13 07:24:33;;;;;;;;;;;;;;;21.11;59.66;100488.47;5036303;28;20368;-50
2023/10/13 07:27:05;;;;;;;;;;;;;;;21.11;59.93;100480.38;5041089;28;19931;-51
2023/10/13 07:29:33;;;;;;;;;;;;;;;21.10;59.60;100476.84;5029861;28;19908;-49
2023/10/13 07:31:59;;;;;;;;;;;;;;;21.10;59.71;100473.31;5035063;28;20364;-48
2023/10/13 07:34:24;;;;;;;;;;;;;;;21.09;59.75;100469.75;5033113;28;19917;-48
2023/10/13 07:36:51;;;;;;;;;;;;;;;21.09;59.78;100475.16;5036792;28;19919;-47
2023/10/13 07:39:24;;;;;;;;;;;;;;;21.10;59.63;100462.47;5037649;28;19942;-51
2023/10/13 07:42:03;;;;;;;;;;;;;;;21.09;59.93;100456.25;5033825;28;19909;-49
2023/10/13 07:44:31;;;;;;;;;;;;;;;21.09;60.02;100439.19;5035139;28;19940;-50
2023/10/13 07:46:59;;;;;;;;;;;;;;;21.09;60.12;100439.19;5035876;28;19960;-47
2023/10/13 07:49:31;;;;;;;;;;;;;;;21.09;59.84;100441.91;5033498;28;20336;-49
2023/10/13 07:52:03;;;;;;;;;;;;;;;21.08;60.10;100424.84;5033951;28;19924;-47
2023/10/13 07:54:28;;;;;;;;;;;;;;;21.08;59.98;100429.41;5034959;28;19924;-47
2023/10/13 07:56:55;;;;;;;;;;;;;;;21.08;60.15;100427.56;5035415;28;19917;-48
2023/10/13 07:59:22;;;;;;;;;;;;;;;21.09;60.14;100422.97;5041497;28;19920;-47
2023/10/13 08:01:47;;;;;;;;;;;;;;;21.08;60.20;100424.84;5033284;28;19931;-47
2023/10/13 08:04:14;;;;;;;;;;;;;;;21.08;60.27;100418.59;5032551;28;19956;-47
2023/10/13 08:06:43;;;;;;;;;;;;;;;21.08;60.35;100414.03;5035226;28;19956;-48
2023/10/13 08:09:08;;;;;;;;;;;;;;;21.08;60.29;100416.75;5035082;28;19917;-49
2023/10/13 08:11:37;;;;;;;;;;;;;;;21.08;60.44;100405.09;5036051;28;19921;-49
2023/10/13 08:14:17;;;;;;;;;;;;;;;21.08;60.53;100403.22;5035605;28;19917;-47
2023/10/13 08:19:14;;;;;;;;;;;;;;;21.08;60.31;100394.28;5040811;28;19927;-48
2023/10/13 08:21:48;;;;;;;;;;;;;;;21.08;60.49;100397.81;5038048;28;19909;-47
2023/10/13 08:24:15;;;;;;;;;;;;;;;21.09;60.27;100406.75;5040116;28;19975;-46
2023/10/13 08:29:49;;;;;;;;;;;;;;;21.08;60.60;100397.81;5032495;28;19944;-49
2023/10/13 08:32:14;;;;;;;;;;;;;;;21.09;60.60;100413.00;5035552;28;19909;-50
2023/10/13 08:34:59;;;;;;;;;;;;;;;21.09;60.36;100395.94;5037095;28;19932;-47
2023/10/13 08:43:08;;;;;;;;;;;;;;;21.10;60.73;100390.34;5070494;28;20012;-50
2023/10/13 08:48:07;;;;;;;;;;;;;;;21.10;60.42;100393.03;5039097;28;19916;-51
2023/10/13 08:53:28;;;;;;;;;;;;;;;21.11;60.45;100383.91;5043236;28;19928;-47
2023/10/13 08:56:15;;;;;;;;;;;;;;;21.12;60.52;100384.75;5038507;28;19967;-53
2023/10/13 09:07:09;;;;;;;;;;;;;;;21.12;60.40;100374.78;5045316;28;19924;-49
2023/10/13 09:09:59;;;;;;;;;;;;;;;21.12;60.43;100353.16;5040652;28;19913;-48
2023/10/13 09:15:17;;;;;;;;;;;;;;;21.12;60.41;100360.41;5031687;28;20383;-51
2023/10/13 09:17:53;;;;;;;;;;;;;;;21.12;60.50;100366.66;5036027;28;19917;-50
2023/10/13 09:20:35;;;;;;;;;;;;;;;21.14;60.29;100361.03;5035617;28;19918;-54
2023/10/13 09:25:35;;;;;;;;;;;;;;;21.14;60.54;100350.22;5034791;28;19920;-50
2023/10/13 09:28:10;;;;;;;;;;;;;;;21.15;60.25;100351.91;5042855;28;20430;-50
2023/10/13 09:30:42;;;;;;;;;;;;;;;21.14;60.49;100342.13;5040178;28;19913;-52
2023/10/13 09:33:20;;;;;;;;;;;;;;;21.15;60.40;100341.09;5037039;28;19924;-51
2023/10/13 09:35:51;;;;;;;;;;;;;;;21.14;60.65;100351.06;5035687;28;19916;-53
2023/10/13 09:38:17;;;;;;;;;;;;;;;21.16;60.28;100340.06;5038738;28;20379;-48
2023/10/13 09:40:49;;;;;;;;;;;;;;;21.15;60.66;100335.69;5039193;28;19999;-52
2023/10/13 09:43:16;;;;;;;;;;;;;;;21.15;60.42;100335.69;5035636;28;19924;-48
2023/10/13 09:46:01;;;;;;;;;;;;;;;21.15;60.35;100341.94;5037197;28;20007;-50
2023/10/13 09:48:36;;;;;;;;;;;;;;;21.15;60.51;100346.50;5041137;28;20306;-50
2023/10/13 09:51:08;;;;;;;;;;;;;;;21.15;60.53;100335.69;5040511;28;19913;-49
2023/10/13 09:53:34;;;;;;;;;;;;;;;21.14;60.48;100331.31;5037123;28;19936;-51
2023/10/13 09:56:11;;;;;;;;;;;;;;;21.14;60.69;100331.31;5035637;28;19913;-49
2023/10/13 09:58:37;;;;;;;;;;;;;;;21.15;60.35;100343.78;5035267;28;19976;-50
2023/10/13 10:01:09;;;;;;;;;;;;;;;21.14;60.73;100342.97;5036137;28;19979;-48
2023/10/13 10:03:50;;;;;;;;;;;;;;;21.14;60.43;100337.56;5035034;28;19997;-53
2023/10/13 10:06:27;;;;;;;;;;;;;;;21.14;60.56;100326.72;5036996;28;20288;-49
2023/10/13 10:08:56;;;;;;;;;;;;;;;21.15;60.63;100331.13;5035436;28;19943;-48
2023/10/13 10:11:31;;;;;;;;;;;;;;;21.14;60.83;100318.63;5032510;28;19932;-52
2023/10/13 10:14:17;;;;;;;;;;;;;;;21.14;60.88;100323.19;5040001;28;19913;-50
2023/10/13 10:17:07;;;;;;;;;;;;;;;21.13;60.75;100319.66;5033997;28;19920;-49
2023/10/13 10:19:35;;;;;;;;;;;;;;;21.13;60.66;100314.25;5038178;28;19936;-49
2023/10/13 10:22:20;;;;;;;;;;;;;;;21.13;60.73;100297.22;5034004;28;19916;-51
2023/10/13 10:24:55;;;;;;;;;;;;;;;21.14;60.63;100298.88;5034027;28;19908;-48
2023/10/13 10:27:25;;;;;;;;;;;;;;;21.13;60.78;100303.44;5034453;28;19980;-49
2023/10/13 10:29:53;;;;;;;;;;;;;;;21.13;60.64;100289.94;5039937;28;19924;-49
2023/10/13 10:32:18;;;;;;;;;;;;;;;21.13;60.77;100287.22;5041597;28;19959;-48
2023/10/13 10:34:44;;;;;;;;;;;;;;;21.14;61.01;100277.25;5041848;28;20352;-46
2023/10/13 10:37:09;;;;;;;;;;;;;;;21.14;61.03;100275.38;5033255;28;19916;-47
2023/10/13 10:39:44;;;;;;;;;;;;;;;21.13;60.81;100264.78;5037427;28;19917;-47
2023/10/13 10:42:15;;;;;;;;;;;;;;;21.14;61.07;100271.84;5041703;28;19941;-45
2023/10/13 10:44:42;;;;;;;;;;;;;;;21.14;60.93;100269.97;5036949;28;19909;-48
2023/10/13 10:47:11;;;;;;;;;;;;;;;21.15;60.86;100266.25;5040400;28;19909;-49
2023/10/13 10:49:37;;;;;;;;;;;;;;;21.16;60.92;100254.41;5035101;28;19913;-49
2023/10/13 10:52:04;;;;;;;;;;;;;;;21.17;60.82;100255.22;5038642;28;19915;-48
2023/10/13 10:54:32;;;;;;;;;;;;;;;21.17;61.13;100250.66;5040302;28;19944;-47
2023/10/13 10:57:10;;;;;;;;;;;;;;;21.18;60.98;100232.56;5033292;28;19913;-49
2023/10/13 10:59:37;;;;;;;;;;;;;;;21.18;60.75;100232.56;5037490;28;19917;-48
2023/10/13 11:02:02;;;;;;;;;;;;;;;21.19;60.98;100224.25;5039915;28;19913;-48
2023/10/13 11:04:33;;;;;;;;;;;;;;;21.19;61.03;100226.94;5035075;28;19916;-48
2023/10/13 11:06:58;;;;;;;;;;;;;;;21.19;60.92;100234.22;5040322;28;19932;-50
2023/10/13 11:09:45;;;;;;;;;;;;;;;21.19;60.92;100223.41;5036804;28;19914;-49
2023/10/13 11:12:24;;;;;;;;;;;;;;;21.19;61.09;100236.94;5037858;28;19928;-46
2023/10/13 11:14:50;;;;;;;;;;;;;;;21.19;60.96;100226.13;5038819;28;19965;-50
2023/10/13 11:17:26;;;;;;;;;;;;;;;21.18;61.29;100206.34;5067660;28;19913;-50
2023/10/13 11:19:51;;;;;;;;;;;;;;;21.18;60.90;100208.22;5037995;28;19917;-48
2023/10/13 11:22:32;;;;;;;;;;;;;;;21.19;60.98;100199.06;5038249;28;19913;-47
2023/10/13 11:24:59;;;;;;;;;;;;;;;21.19;61.06;100190.97;5036420;28;20380;-47
2023/10/13 11:27:43;;;;;;;;;;;;;;;21.19;61.19;100204.47;5040141;28;19912;-50
2023/10/13 11:30:12;;;;;;;;;;;;;;;21.19;61.36;100189.09;5033706;28;19909;-47
2023/10/13 11:32:41;;;;;;;;;;;;;;;21.19;61.44;100177.44;5041808;28;19920;-49
2023/10/13 11:35:20;;;;;;;;;;;;;;;21.19;61.48;100172.03;5037746;28;20357;-48
2023/10/13 11:37:55;;;;;;;;;;;;;;;21.16;61.21;100176.00;5036832;28;20647;-50
2023/10/13 11:40:43;;;;;;;;;;;;;;;21.15;61.41;100170.78;5038646;28;19921;-51
2023/10/13 11:43:05;;;;;;;;;;;;;;;21.14;61.68;100183.47;5032829;28;20457;-48
2023/10/13 11:45:35;;;;;;;;;;;;;;;21.14;61.35;100172.66;5039336;28;19909;-48
2023/10/13 11:48:01;;;;;;;;;;;;;;;21.13;61.43;100168.28;5036684;28;19912;-49
2023/10/13 11:50:34;;;;;;;;;;;;;;;21.13;61.36;100149.38;5038000;28;19913;-47
2023/10/13 11:53:00;;;;;;;;;;;;;;;21.12;61.61;100155.81;5041758;28;19915;-48
2023/10/13 11:55:25;;;;;;;;;;;;;;;21.11;61.58;100150.59;5037733;28;19917;-48
2023/10/13 11:57:51;;;;;;;;;;;;;;;21.11;61.74;100142.47;5033567;28;19939;-46
2023/10/13 12:00:26;;;;;;;;;;;;;;;21.11;61.38;100139.78;5041238;28;19913;-47
2023/10/13 12:05:59;;;;;;;;;;;;;;;21.11;61.54;100129.81;5038723;28;20393;-47
2023/10/13 12:08:23;;;;;;;;;;;;;;;21.11;61.62;100118.16;5041880;28;19913;-50
2023/10/13 12:11:00;;;;;;;;;;;;;;;21.11;61.69;100108.19;5035843;28;19909;-46
2023/10/13 12:13:25;;;;;;;;;;;;;;;21.11;61.68;100096.53;5041823;28;19917;-49
2023/10/13 12:15:52;;;;;;;;;;;;;;;21.10;61.37;100103.81;5037148;28;19919;-52
2023/10/13 12:18:19;;;;;;;;;;;;;;;21.10;61.43;100086.75;5033010;28;19944;-51
2023/10/13 12:20:45;;;;;;;;;;;;;;;21.10;61.40;100121.91;5040512;28;19985;-48
2023/10/13 12:23:15;;;;;;;;;;;;;;;21.09;61.65;100099.44;5040280;28;20356;-47
2023/10/13 12:26:00;;;;;;;;;;;;;;;21.09;61.51;100088.63;5042698;28;20374;-49
2023/10/13 12:28:28;;;;;;;;;;;;;;;21.10;61.30;100092.16;5039105;28;20004;-46
2023/10/13 12:30:57;;;;;;;;;;;;;;;21.11;61.31;100112.75;5036944;28;19909;-49
2023/10/13 12:33:25;;;;;;;;;;;;;;;21.09;61.39;100104.84;5038412;28;19913;-46
2023/10/13 12:52:16;;;;;;;;;;;;;;;21.13;61.35;100105.28;5041783;28;19916;-51
2023/10/13 12:54:58;;;;;;;;;;;;;;;21.14;61.47;100104.25;5036331;28;19915;-50
2023/10/13 12:57:24;;;;;;;;;;;;;;;21.14;61.50;100101.53;5050197;28;19916;-50
2023/10/13 12:59:53;;;;;;;;;;;;;;;21.13;61.60;100087.19;5043557;28;19913;-49
2023/10/13 13:02:20;;;;;;;;;;;;;;;21.14;61.54;100098.84;5040856;28;19909;-49
2023/10/13 13:04:47;;;;;;;;;;;;;;;21.14;61.73;100096.13;5041877;28;19963;-48
2023/10/13 13:07:13;;;;;;;;;;;;;;;21.13;61.73;100108.81;5037722;28;19916;-50
2023/10/13 13:09:41;;;;;;;;;;;;;;;21.14;61.55;100105.06;5038632;28;19920;-50
2023/10/13 13:12:07;;;;;;;;;;;;;;;21.14;61.87;100112.34;5037965;28;19917;-48
2023/10/13 13:14:34;;;;;;;;;;;;;;;21.13;61.68;100103.41;5038360;28;19909;-48
2023/10/13 13:17:05;;;;;;;;;;;;;;;21.14;61.50;100123.16;5042265;28;19913;-48
2023/10/13 13:19:33;;;;;;;;;;;;;;;21.14;61.80;100126.69;5040544;28;19920;-46
2023/10/13 13:21:59;;;;;;;;;;;;;;;21.15;61.64;100125.69;5039429;28;19991;-46
2023/10/13 13:24:24;;;;;;;;;;;;;;;21.15;61.58;100133.78;5041333;28;20429;-46
2023/10/13 13:26:54;;;;;;;;;;;;;;;21.15;61.71;100133.78;5041122;28;20380;-47
2023/10/13 13:29:19;;;;;;;;;;;;;;;21.16;61.77;100129.22;5042011;28;19928;-47
2023/10/13 13:31:46;;;;;;;;;;;;;;;21.07;61.85;100106.06;5042868;28;20295;-47
2023/10/13 13:34:12;;;;;;;;;;;;;;;21.16;61.86;100134.63;5038837;28;20015;-49
2023/10/13 13:36:38;;;;;;;;;;;;;;;21.15;61.70;100114.00;5038225;28;19944;-48
2023/10/13 13:39:04;;;;;;;;;;;;;;;21.15;61.98;100116.72;5039727;28;19935;-47
2023/10/13 13:41:32;;;;;;;;;;;;;;;21.15;61.98;100114.88;5038518;28;19913;-47
2023/10/13 13:44:01;;;;;;;;;;;;;;;21.15;62.00;100116.72;5040250;28;19913;-49
2023/10/13 13:46:32;;;;;;;;;;;;;;;21.13;62.09;100116.94;5039713;28;19988;-48
2023/10/13 13:48:59;;;;;;;;;;;;;;;21.14;62.13;100110.47;5038792;28;19935;-47
2023/10/13 13:51:27;;;;;;;;;;;;;;;21.13;62.21;100119.63;5041569;28;19909;-47
2023/10/13 13:53:53;;;;;;;;;;;;;;;21.13;62.00;100119.63;5034917;28;19951;-47
2023/10/13 13:56:19;;;;;;;;;;;;;;;21.15;62.04;100106.75;5037095;28;20372;-48
2023/10/13 13:58:48;;;;;;;;;;;;;;;21.15;62.17;100095.09;5037780;28;19980;-48
2023/10/13 14:01:25;;;;;;;;;;;;;;;21.15;62.18;100111.31;5037078;28;20352;-47
2023/10/13 14:03:50;;;;;;;;;;;;;;;21.16;62.20;100096.78;5032899;28;19914;-48
2023/10/13 14:06:21;;;;;;;;;;;;;;;21.14;62.43;100096.97;5038557;28;19909;-46
2023/10/13 14:08:50;;;;;;;;;;;;;;;21.13;62.43;100108.81;5035074;28;19912;-48
2023/10/13 14:11:22;;;;;;;;;;;;;;;21.13;62.28;100111.53;5039430;28;19960;-47
2023/10/13 14:13:55;;;;;;;;;;;;;;;21.13;62.56;100108.00;5035571;28;20261;-51
2023/10/13 14:16:22;;;;;;;;;;;;;;;21.11;62.74;100108.19;5040181;28;19913;-51
2023/10/13 14:18:48;;;;;;;;;;;;;;;21.11;62.73;100105.50;5038585;28;19944;-47
2023/10/13 14:21:16;;;;;;;;;;;;;;;21.12;62.39;100109.03;5055333;28;19909;-49
2023/10/13 14:23:44;;;;;;;;;;;;;;;21.11;62.79;100107.34;5039073;28;19913;-49
2023/10/13 14:26:12;;;;;;;;;;;;;;;21.12;62.53;100115.28;5034424;28;19912;-48
2023/10/13 14:28:44;;;;;;;;;;;;;;;21.12;62.77;100103.63;5040259;28;19917;-49
2023/10/13 14:31:13;;;;;;;;;;;;;;;21.13;62.57;100116.09;5035028;28;19920;-51
2023/10/13 14:33:39;;;;;;;;;;;;;;;21.13;62.64;100126.91;5034666;28;19944;-50
2023/10/13 14:36:04;;;;;;;;;;;;;;;21.13;62.77;100125.03;5032653;28;19913;-48
2023/10/13 14:38:30;;;;;;;;;;;;;;;21.12;62.52;100109.88;5033665;28;19944;-47
2023/10/13 14:40:58;;;;;;;;;;;;;;;21.12;62.60;100125.25;5038724;28;19941;-50
2023/10/13 14:43:27;;;;;;;;;;;;;;;21.11;62.45;100119.00;5034225;28;20388;-51
2023/10/13 14:45:52;;;;;;;;;;;;;;;21.11;62.77;100116.31;5035755;28;19916;-51
2023/10/13 14:48:17;;;;;;;;;;;;;;;21.12;62.78;100122.53;5037367;28;19913;-50
2023/10/13 14:50:43;;;;;;;;;;;;;;;21.12;62.79;100138.75;5032264;28;19917;-52
2023/10/13 14:53:08;;;;;;;;;;;;;;;21.11;62.48;100143.34;5032775;28;19913;-52
2023/10/13 14:55:38;;;;;;;;;;;;;;;21.12;62.68;100127.94;5040799;28;20375;-51
2023/10/13 14:58:04;;;;;;;;;;;;;;;21.12;62.42;100120.69;5038178;28;19924;-47
2023/10/13 15:00:31;;;;;;;;;;;;;;;21.12;62.60;100138.75;5040267;28;19959;-51
2023/10/13 15:02:56;;;;;;;;;;;;;;;21.12;62.60;100131.50;5041837;28;19913;-49
2023/10/13 15:05:22;;;;;;;;;;;;;;;21.12;62.42;100147.72;5036077;28;19940;-49
2023/10/13 15:07:47;;;;;;;;;;;;;;;21.14;62.44;100147.50;5040015;28;19916;-48
2023/10/13 15:10:14;;;;;;;;;;;;;;;21.13;62.56;100140.44;5038280;28;19972;-49
2023/10/13 15:12:40;;;;;;;;;;;;;;;21.13;62.50;100140.44;5038772;28;19968;-50
2023/10/13 15:15:13;;;;;;;;;;;;;;;21.13;62.53;100143.97;5040594;28;19917;-51
2023/10/13 15:17:39;;;;;;;;;;;;;;;21.13;62.51;100138.56;5036481;28;19921;-49
2023/10/13 15:20:08;;;;;;;;;;;;;;;21.14;62.58;100140.22;5035816;28;20008;-53
2023/10/13 15:22:34;;;;;;;;;;;;;;;21.14;62.48;100153.72;5039799;28;19929;-47
2023/10/13 15:25:09;;;;;;;;;;;;;;;21.14;62.39;100163.72;5034613;28;19913;-47
2023/10/13 15:27:41;;;;;;;;;;;;;;;21.14;62.60;100147.50;5035413;28;19920;-48
2023/10/13 15:30:19;;;;;;;;;;;;;;;21.13;62.47;100154.78;5040704;28;19936;-48
2023/10/13 15:32:45;;;;;;;;;;;;;;;21.14;62.47;100150.19;5042311;28;19960;-51
2023/10/13 15:35:12;;;;;;;;;;;;;;;21.13;62.18;100143.97;5042196;28;19917;-49
2023/10/13 15:37:37;;;;;;;;;;;;;;;21.13;62.13;100135.84;5043520;28;19918;-50
2023/10/13 15:40:04;;;;;;;;;;;;;;;21.13;62.37;100135.03;5040030;28;19917;-51
2023/10/13 15:42:29;;;;;;;;;;;;;;;21.13;62.54;100127.75;5044292;28;19932;-50
2023/10/13 15:44:54;;;;;;;;;;;;;;;21.13;62.39;100132.31;5035515;28;19921;-49